KCBM/CBM METAR and TAF weather

Enter ICAO airport designator
Station Type Date Time Source
KCBM METAR 2021/10/20 05:56 UTC NOAA

KCBM 200556Z AUTO 00000KT 10SM CLR 12/11 A3017 RMK AO2 SLP218 T01160107 10154 20105 402340052 58004 $


Station Type Date Time Source
KCBM Decoded METAR 2021/10/20 05:56 UTC NOAA

Columbus Air Force Base, MS, United States (KCBM) 33-39N 088-27W
Oct 20, 2021 - 01:56 AM EDT / 2021.10.20 0556 UTC
Wind: Calm:0
Visibility: 10 mile(s):0
Sky conditions: clear
Temperature: 52.9 F (11.6 C)
Dew Point: 51.3 F (10.7 C)
Relative Humidity: 94%
Pressure (altimeter): 30.17 in. Hg (1021 hPa)
Pressure tendency: 0.01 inches (0.4 hPa) lower than three hours ago
ob: KCBM 200556Z AUTO 00000KT 10SM CLR 12/11 A3017 RMK AO2 SLP218 T01160107 10154 20105 402340052 58004
cycle: 6

Station Type Date Time Source
KCBM TAF 2021/10/20 01:09 UTC NOAA

TAF TAF KCBM 200100Z 2001/2107 15006KT 9999 FEW240 QNH3015INS
BECMG 2006/2007 10006KT 9999 BKN035 QNH3015INS
BECMG 2015/2016 18012KT 9999 BKN050 QNH3009INS
BECMG 2020/2021 18006KT 9999 BKN035 QNH3007INS
BECMG 2105/2106 18006KT 6000 -SHRA BKN020 OVC030 QNH3008INS TX26/2020Z TN09/2011Z

Example: see airport list